createdAt,value
2022-08-25T00:02:09.823Z,29.00
2022-08-25T00:05:08.635Z,18.90
2022-08-25T00:08:07.881Z,19.00
2022-08-25T00:11:05.334Z,24.20
2022-08-25T00:14:02.810Z,20.50
2022-08-25T00:17:00.282Z,24.60
2022-08-25T00:19:57.752Z,22.80
2022-08-25T00:22:56.250Z,18.80
2022-08-25T00:25:53.720Z,23.50
2022-08-25T00:28:51.215Z,20.30
2022-08-25T00:34:50.792Z,28.70
2022-08-25T00:37:48.260Z,20.50
2022-08-25T00:40:45.728Z,25.30
2022-08-25T00:43:43.207Z,22.60
2022-08-25T00:46:40.746Z,18.60
2022-08-25T00:49:38.592Z,18.10
2022-08-25T00:52:36.065Z,21.20
2022-08-25T00:55:33.523Z,20.60
2022-08-25T00:58:31.357Z,20.30
2022-08-25T01:01:28.894Z,23.50
2022-08-25T01:04:26.825Z,23.40
2022-08-25T01:07:24.279Z,20.40
2022-08-25T01:10:21.758Z,19.30
2022-08-25T01:13:20.025Z,23.20
2022-08-25T01:16:17.577Z,24.40
2022-08-25T01:19:15.280Z,23.60
2022-08-25T01:22:13.214Z,21.90
2022-08-25T01:25:10.708Z,25.20
2022-08-25T01:28:08.604Z,20.40
2022-08-25T01:31:23.839Z,22.90
2022-08-25T01:34:22.061Z,20.90
2022-08-25T01:37:20.867Z,20.90
2022-08-25T01:40:18.440Z,22.50
2022-08-25T01:43:16.335Z,22.20
2022-08-25T01:46:14.505Z,19.30
2022-08-25T01:49:12.024Z,25.50
2022-08-25T01:52:09.471Z,22.50
2022-08-25T01:55:06.938Z,23.90
2022-08-25T01:58:04.668Z,23.80
2022-08-25T02:01:02.910Z,21.10
2022-08-25T02:04:00.807Z,21.70
2022-08-25T02:06:59.694Z,20.70
2022-08-25T02:09:57.168Z,17.70
2022-08-25T02:12:56.682Z,24.10
2022-08-25T02:15:54.150Z,22.60
2022-08-25T02:18:51.616Z,20.70
2022-08-25T02:21:49.082Z,21.20
2022-08-25T02:24:46.580Z,23.40
2022-08-25T02:27:44.069Z,21.10
2022-08-25T02:30:41.595Z,24.40
2022-08-25T02:33:39.160Z,18.80
2022-08-25T02:36:36.651Z,23.40
2022-08-25T02:39:34.135Z,18.90
2022-08-25T02:42:31.626Z,20.30
2022-08-25T02:45:29.120Z,23.60
2022-08-25T02:48:26.568Z,24.10
2022-08-25T02:51:24.053Z,22.00
2022-08-25T02:54:23.297Z,20.60
2022-08-25T02:57:20.803Z,20.60
2022-08-25T03:00:18.282Z,20.90
2022-08-25T03:03:16.523Z,21.20
2022-08-25T03:06:14.005Z,19.50
2022-08-25T03:09:11.484Z,20.30
2022-08-25T03:12:09.707Z,23.90
2022-08-25T03:15:12.314Z,18.30
2022-08-25T03:18:11.884Z,17.80
2022-08-25T03:21:11.728Z,23.70
2022-08-25T03:24:09.209Z,19.50
2022-08-25T03:27:07.127Z,20.50
2022-08-25T03:30:04.589Z,22.90
2022-08-25T03:33:02.062Z,24.80
2022-08-25T03:35:59.535Z,24.10
2022-08-25T03:38:57.977Z,22.50
2022-08-25T03:41:58.087Z,22.70
2022-08-25T03:44:55.917Z,22.20
2022-08-25T03:47:53.368Z,21.90
2022-08-25T03:50:51.949Z,23.20
2022-08-25T03:53:49.685Z,25.10
2022-08-25T03:56:47.150Z,18.80
2022-08-25T03:59:44.674Z,23.00
2022-08-25T04:02:42.192Z,24.20
2022-08-25T04:05:40.121Z,28.00
2022-08-25T04:08:37.599Z,21.20
2022-08-25T04:11:35.070Z,19.50
2022-08-25T04:14:32.597Z,22.20
2022-08-25T04:17:30.128Z,21.20
2022-08-25T04:20:27.593Z,24.50
2022-08-25T04:23:25.061Z,19.80
2022-08-25T04:26:22.507Z,19.80
2022-08-25T04:29:19.969Z,23.70
2022-08-25T04:32:21.293Z,20.30
2022-08-25T04:35:18.756Z,21.50
2022-08-25T04:38:16.224Z,23.30
2022-08-25T04:41:13.728Z,18.40
2022-08-25T04:44:11.191Z,23.50
2022-08-25T04:47:08.665Z,18.90
2022-08-25T04:50:06.430Z,20.30
2022-08-25T04:53:03.948Z,19.10
2022-08-25T04:56:03.892Z,17.60
2022-08-25T04:59:01.610Z,26.00
2022-08-25T05:02:02.350Z,21.00
2022-08-25T05:05:01.614Z,18.60
2022-08-25T05:07:59.838Z,22.20
2022-08-25T05:10:57.351Z,18.10
2022-08-25T05:13:54.836Z,20.10
2022-08-25T05:16:52.375Z,19.00
2022-08-25T05:19:49.981Z,23.60
2022-08-25T05:22:47.793Z,19.20
2022-08-25T05:25:45.298Z,15.20
2022-08-25T05:28:43.062Z,18.00
2022-08-25T05:31:43.977Z,19.30
2022-08-25T05:34:43.681Z,15.00
2022-08-25T05:37:41.155Z,15.90
2022-08-25T05:40:39.226Z,16.30
2022-08-25T05:43:36.695Z,16.60
2022-08-25T05:46:34.170Z,16.10
2022-08-25T05:49:31.644Z,14.80
2022-08-25T05:52:29.101Z,16.20
2022-08-25T05:55:26.550Z,16.30
2022-08-25T05:58:24.007Z,17.20
2022-08-25T06:01:39.001Z,16.50
2022-08-25T06:04:39.607Z,16.20
2022-08-25T06:07:38.727Z,20.60
2022-08-25T06:10:36.219Z,19.20
2022-08-25T06:13:33.693Z,15.40
2022-08-25T06:16:31.245Z,16.10
2022-08-25T06:19:28.769Z,18.20
2022-08-25T06:22:26.527Z,18.90
2022-08-25T06:25:23.997Z,18.90
2022-08-25T06:28:21.441Z,20.10
2022-08-25T06:31:19.113Z,18.00
2022-08-25T06:34:16.756Z,18.30
2022-08-25T06:37:14.235Z,19.70
2022-08-25T06:40:17.117Z,23.70
2022-08-25T06:43:15.638Z,27.20
2022-08-25T06:46:13.114Z,23.40
2022-08-25T06:49:11.180Z,23.20
2022-08-25T06:52:08.655Z,22.20
2022-08-25T06:55:06.916Z,29.40
2022-08-25T06:58:04.912Z,33.20
2022-08-25T07:01:03.124Z,27.10
2022-08-25T07:04:00.768Z,25.50
2022-08-25T07:06:58.264Z,27.70
2022-08-25T07:09:56.054Z,32.00
2022-08-25T07:12:53.521Z,22.60
2022-08-25T07:15:51.092Z,32.80
2022-08-25T07:18:51.747Z,25.40
2022-08-25T07:21:49.221Z,37.30
2022-08-25T07:24:46.753Z,31.90
2022-08-25T07:27:44.218Z,40.70
2022-08-25T07:30:41.736Z,29.10
2022-08-25T07:33:59.896Z,35.70
2022-08-25T07:36:57.382Z,29.70
2022-08-25T07:39:55.560Z,33.90
2022-08-25T07:42:54.685Z,41.90
2022-08-25T07:45:52.146Z,38.70
2022-08-25T07:52:09.123Z,28.30
2022-08-25T07:55:08.354Z,42.30
2022-08-25T07:58:09.926Z,30.70
2022-08-25T08:01:12.434Z,27.10
2022-08-25T08:04:10.758Z,24.80
2022-08-25T08:07:12.119Z,38.20
2022-08-25T08:13:28.102Z,32.30
2022-08-25T08:16:26.050Z,39.70
2022-08-25T08:19:23.578Z,29.60
2022-08-25T08:22:21.045Z,33.30
2022-08-25T08:25:21.210Z,31.00
2022-08-25T08:28:19.158Z,30.90
2022-08-25T08:31:19.652Z,29.10
2022-08-25T08:34:18.291Z,25.20
2022-08-25T08:37:15.772Z,28.60
2022-08-25T08:40:14.326Z,24.60
2022-08-25T08:43:18.217Z,23.20
2022-08-25T08:46:16.280Z,23.70
2022-08-25T08:49:14.181Z,21.60
2022-08-25T08:52:12.418Z,18.50
2022-08-25T08:55:09.907Z,21.90
2022-08-25T08:58:07.571Z,22.70
2022-08-25T09:01:05.107Z,21.00
2022-08-25T09:04:02.610Z,27.10
2022-08-25T09:07:01.139Z,23.30
2022-08-25T09:09:58.780Z,18.70
2022-08-25T09:12:57.133Z,23.50
2022-08-25T09:16:20.318Z,24.10
2022-08-25T09:19:21.394Z,22.30
2022-08-25T09:22:35.745Z,17.60
2022-08-25T09:25:52.210Z,15.20
2022-08-25T09:28:51.506Z,21.20
2022-08-25T09:31:49.156Z,19.10
2022-08-25T09:34:46.655Z,19.50
2022-08-25T09:37:44.134Z,20.80
2022-08-25T09:40:42.545Z,18.20
2022-08-25T09:43:40.307Z,17.10
2022-08-25T09:46:37.891Z,11.90
2022-08-25T09:49:35.398Z,13.30
2022-08-25T09:52:34.717Z,15.40
2022-08-25T09:55:32.554Z,16.40
2022-08-25T09:58:30.252Z,15.60
2022-08-25T10:01:28.962Z,24.00
2022-08-25T10:04:32.952Z,17.30
2022-08-25T10:07:30.425Z,17.80
2022-08-25T10:10:27.913Z,18.50
2022-08-25T10:13:30.163Z,19.40
2022-08-25T10:16:32.141Z,17.50
2022-08-25T10:19:31.694Z,15.60
2022-08-25T10:22:32.572Z,19.40
2022-08-25T10:25:30.059Z,14.60
2022-08-25T10:28:27.519Z,17.40
2022-08-25T10:31:25.125Z,20.60
2022-08-25T10:34:22.725Z,14.70
2022-08-25T10:37:20.315Z,12.50
2022-08-25T10:40:18.114Z,18.20
2022-08-25T10:43:15.625Z,14.80
2022-08-25T10:46:16.794Z,21.00
2022-08-25T10:49:16.387Z,14.30
2022-08-25T10:52:14.729Z,19.30
2022-08-25T10:55:12.640Z,16.00
2022-08-25T10:58:11.588Z,15.30
2022-08-25T11:01:12.231Z,12.50
2022-08-25T11:04:09.820Z,12.70
2022-08-25T11:07:07.322Z,13.60
2022-08-25T11:10:04.813Z,13.70
2022-08-25T11:13:02.545Z,12.60
2022-08-25T11:16:16.602Z,9.00
2022-08-25T11:19:15.277Z,11.60
2022-08-25T11:22:12.774Z,15.70
2022-08-25T11:25:10.857Z,13.30
2022-08-25T11:28:08.576Z,10.90
2022-08-25T11:31:06.105Z,14.00
2022-08-25T11:34:03.607Z,11.10
2022-08-25T11:37:11.105Z,11.50
2022-08-25T11:40:10.017Z,12.20
2022-08-25T11:43:08.988Z,11.10
2022-08-25T11:46:06.550Z,10.40
2022-08-25T11:49:04.656Z,13.00
2022-08-25T11:52:03.656Z,12.10
2022-08-25T11:55:01.126Z,11.40
2022-08-25T11:58:02.959Z,15.00
2022-08-25T12:01:01.162Z,14.10
2022-08-25T12:03:58.721Z,11.30
2022-08-25T12:06:56.269Z,11.50
2022-08-25T12:09:53.910Z,13.60
2022-08-25T12:12:51.424Z,11.70
2022-08-25T12:15:49.684Z,11.80
2022-08-25T12:18:50.444Z,13.70
2022-08-25T12:21:48.305Z,17.60
2022-08-25T12:24:47.607Z,12.10
2022-08-25T12:27:45.915Z,20.20
2022-08-25T12:30:43.877Z,8.90
2022-08-25T12:33:41.416Z,11.70
2022-08-25T12:36:39.228Z,13.70
2022-08-25T12:39:36.718Z,11.70
2022-08-25T12:42:34.798Z,12.80
2022-08-25T12:45:32.344Z,12.90
2022-08-25T12:48:31.786Z,11.50
2022-08-25T12:51:29.306Z,7.40
2022-08-25T12:54:27.473Z,10.80
2022-08-25T12:57:29.587Z,10.70
2022-08-25T13:03:26.131Z,14.90
2022-08-25T13:06:23.761Z,11.20
2022-08-25T13:09:22.173Z,11.30
2022-08-25T13:12:21.369Z,13.70
2022-08-25T13:15:18.844Z,8.90
2022-08-25T13:18:16.316Z,12.50
2022-08-25T13:21:14.756Z,7.20
2022-08-25T13:24:12.654Z,10.50
2022-08-25T13:27:11.842Z,9.80
2022-08-25T13:30:09.883Z,14.40
2022-08-25T13:33:08.967Z,15.90
2022-08-25T13:36:23.503Z,12.90
2022-08-25T13:39:39.030Z,9.80
2022-08-25T13:42:39.373Z,10.40
2022-08-25T13:45:41.783Z,11.70
2022-08-25T13:48:39.473Z,9.80
2022-08-25T13:51:50.086Z,9.10
2022-08-25T13:54:58.638Z,7.90
2022-08-25T13:57:56.852Z,9.10
2022-08-25T14:00:59.454Z,6.70
2022-08-25T14:03:57.109Z,9.90
2022-08-25T14:06:59.133Z,6.90
2022-08-25T14:09:56.596Z,6.30
2022-08-25T14:12:54.070Z,8.60
2022-08-25T14:15:51.564Z,8.10
2022-08-25T14:18:49.694Z,7.30
2022-08-25T14:21:47.192Z,8.40
2022-08-25T14:24:47.205Z,10.70
2022-08-25T14:28:06.744Z,7.80
2022-08-25T14:31:02.728Z,9.50
2022-08-25T14:34:02.825Z,10.80
2022-08-25T14:37:01.149Z,6.80
2022-08-25T14:39:59.058Z,7.70
2022-08-25T14:42:57.023Z,7.00
2022-08-25T14:45:54.614Z,8.80
2022-08-25T14:48:54.770Z,8.50
2022-08-25T14:51:53.435Z,4.80
2022-08-25T14:54:50.913Z,6.40
2022-08-25T14:57:48.367Z,6.70
2022-08-25T15:00:45.900Z,8.10
2022-08-25T15:03:45.083Z,8.30
2022-08-25T15:06:45.007Z,6.10
2022-08-25T15:09:42.493Z,6.40
2022-08-25T15:12:47.329Z,6.70
2022-08-25T15:15:53.051Z,8.40
2022-08-25T15:18:50.896Z,14.10
2022-08-25T15:21:51.362Z,13.30
2022-08-25T15:24:49.294Z,8.20
2022-08-25T15:27:51.548Z,6.00
2022-08-25T15:30:49.034Z,8.40
2022-08-25T15:33:46.499Z,6.10
2022-08-25T15:36:44.010Z,7.00
2022-08-25T15:39:41.497Z,7.80
2022-08-25T15:42:42.922Z,7.50
2022-08-25T15:45:46.255Z,5.10
2022-08-25T15:48:44.498Z,14.00
2022-08-25T15:51:42.399Z,6.70
2022-08-25T15:54:40.535Z,6.20
2022-08-25T15:57:40.085Z,6.70
2022-08-25T16:00:39.869Z,9.60
2022-08-25T16:03:37.391Z,11.30
2022-08-25T16:06:35.226Z,10.60
2022-08-25T16:09:32.712Z,5.80
2022-08-25T16:12:30.212Z,7.40
2022-08-25T16:15:28.829Z,6.80
2022-08-25T16:18:26.604Z,9.60
2022-08-25T16:21:25.779Z,7.70
2022-08-25T16:24:26.841Z,7.40
2022-08-25T16:27:24.545Z,8.00
2022-08-25T16:30:22.005Z,5.80
2022-08-25T16:33:19.839Z,7.70
2022-08-25T16:36:18.029Z,4.30
2022-08-25T16:39:15.509Z,5.00
2022-08-25T16:42:12.998Z,5.50
2022-08-25T16:45:10.478Z,4.80
2022-08-25T16:48:08.220Z,5.00
2022-08-25T16:51:06.154Z,7.10
2022-08-25T16:54:22.163Z,7.40
2022-08-25T16:57:20.314Z,6.10
2022-08-25T17:00:17.784Z,6.50
2022-08-25T17:03:16.667Z,5.20
2022-08-25T17:06:15.196Z,6.50
2022-08-25T17:09:12.813Z,6.40
2022-08-25T17:12:11.628Z,6.00
2022-08-25T17:15:09.433Z,4.50
2022-08-25T17:18:07.072Z,4.60
2022-08-25T17:21:04.792Z,6.30
2022-08-25T17:24:02.252Z,6.80
2022-08-25T17:27:02.414Z,6.90
2022-08-25T17:29:59.911Z,5.60
2022-08-25T17:32:58.032Z,8.10
2022-08-25T17:35:55.503Z,8.30
2022-08-25T17:38:52.998Z,7.10
2022-08-25T17:41:50.660Z,8.20
2022-08-25T17:44:49.206Z,8.70
2022-08-25T17:47:46.693Z,6.00
2022-08-25T17:50:44.378Z,8.10
2022-08-25T17:53:42.186Z,4.90
2022-08-25T17:56:40.130Z,7.40
2022-08-25T17:59:38.852Z,6.20
2022-08-25T18:02:38.678Z,8.00
2022-08-25T18:05:36.629Z,8.40
2022-08-25T18:08:35.096Z,5.30
2022-08-25T18:11:33.457Z,6.10
2022-08-25T18:14:30.994Z,5.80
2022-08-25T18:17:28.449Z,4.60
2022-08-25T18:20:26.707Z,7.30
2022-08-25T18:23:24.189Z,4.60
2022-08-25T18:26:24.683Z,8.10
2022-08-25T18:29:23.131Z,6.60
2022-08-25T18:32:20.600Z,8.30
2022-08-25T18:35:26.611Z,9.90
2022-08-25T18:38:42.909Z,7.10
2022-08-25T18:41:40.525Z,6.20
2022-08-25T18:44:38.020Z,6.20
2022-08-25T18:47:35.522Z,5.00
2022-08-25T18:50:33.070Z,8.70
2022-08-25T18:53:37.572Z,9.20
2022-08-25T18:56:47.662Z,7.00
2022-08-25T18:59:45.368Z,10.10
2022-08-25T19:02:44.953Z,10.80
2022-08-25T19:05:45.937Z,7.90
2022-08-25T19:08:52.827Z,8.80
2022-08-25T19:11:50.379Z,5.40
2022-08-25T19:14:47.877Z,5.20
2022-08-25T19:17:45.406Z,7.10
2022-08-25T19:20:42.902Z,8.60
2022-08-25T19:23:40.477Z,8.00
2022-08-25T19:26:38.234Z,8.50
2022-08-25T19:29:35.758Z,7.70
2022-08-25T19:32:33.618Z,8.10
2022-08-25T19:35:32.251Z,6.50
2022-08-25T19:38:33.863Z,12.00
2022-08-25T19:41:33.050Z,7.20
2022-08-25T19:44:30.875Z,7.80
2022-08-25T19:47:29.789Z,6.90
2022-08-25T19:50:29.298Z,8.20
2022-08-25T19:53:27.665Z,11.50
2022-08-25T19:56:25.442Z,8.90
2022-08-25T19:59:23.112Z,9.50
2022-08-25T20:02:20.697Z,6.60
2022-08-25T20:05:23.783Z,11.30
2022-08-25T20:08:29.565Z,5.00
2022-08-25T20:11:27.758Z,7.10
2022-08-25T20:14:26.301Z,10.20
2022-08-25T20:17:26.179Z,8.40
2022-08-25T20:20:26.002Z,7.90
2022-08-25T20:23:57.933Z,10.50
2022-08-25T20:26:55.772Z,10.20
2022-08-25T20:29:53.280Z,9.00
2022-08-25T20:32:50.749Z,7.30
2022-08-25T20:35:48.208Z,7.10
2022-08-25T20:38:45.707Z,7.80
2022-08-25T20:41:43.183Z,9.40
2022-08-25T20:44:47.147Z,9.80
2022-08-25T20:47:44.948Z,9.10
2022-08-25T20:50:42.439Z,6.70
2022-08-25T20:53:39.901Z,8.60
2022-08-25T20:56:38.197Z,12.70
2022-08-25T20:59:35.648Z,6.60
2022-08-25T21:02:33.195Z,8.50
2022-08-25T21:05:31.880Z,7.10
2022-08-25T21:08:29.356Z,7.00
2022-08-25T21:11:27.174Z,8.60
2022-08-25T21:14:24.642Z,8.40
2022-08-25T21:17:23.886Z,8.30
2022-08-25T21:20:21.470Z,6.90
2022-08-25T21:23:19.035Z,10.30
2022-08-25T21:26:16.520Z,8.80
2022-08-25T21:29:16.993Z,9.00
2022-08-25T21:32:14.476Z,6.80
2022-08-25T21:35:11.965Z,11.10
2022-08-25T21:38:09.611Z,7.90
2022-08-25T21:41:08.522Z,8.20
2022-08-25T21:44:07.288Z,7.20
2022-08-25T21:47:04.795Z,7.00
2022-08-25T21:50:02.264Z,8.60
2022-08-25T21:52:59.763Z,9.60
2022-08-25T21:55:57.230Z,9.10
2022-08-25T21:58:54.729Z,6.70
2022-08-25T22:01:53.117Z,8.30
2022-08-25T22:04:50.575Z,7.70
2022-08-25T22:07:48.057Z,9.10
2022-08-25T22:10:45.617Z,7.00
2022-08-25T22:13:44.259Z,8.00
2022-08-25T22:16:42.573Z,12.10
2022-08-25T22:19:41.100Z,8.80
2022-08-25T22:22:38.576Z,10.90
2022-08-25T22:25:36.039Z,6.20
2022-08-25T22:28:33.522Z,8.20
2022-08-25T22:31:31.025Z,9.10
2022-08-25T22:34:30.252Z,6.80
2022-08-25T22:37:30.369Z,8.00
2022-08-25T22:40:28.134Z,8.20
2022-08-25T22:43:26.743Z,9.20
2022-08-25T22:46:26.380Z,9.80
2022-08-25T22:49:25.487Z,8.70
2022-08-25T22:52:33.270Z,6.30
2022-08-25T22:55:31.360Z,7.40
2022-08-25T22:58:29.488Z,7.10
2022-08-25T23:01:27.188Z,7.00
2022-08-25T23:04:25.133Z,8.00
2022-08-25T23:07:24.102Z,8.80
2022-08-25T23:10:22.899Z,7.20
2022-08-25T23:13:33.783Z,9.40
2022-08-25T23:16:31.809Z,6.30
2022-08-25T23:19:29.351Z,8.70
2022-08-25T23:22:27.627Z,7.90
2022-08-25T23:25:25.279Z,10.60
2022-08-25T23:28:24.112Z,9.40
2022-08-25T23:31:21.601Z,8.00
2022-08-25T23:34:21.745Z,6.70
2022-08-25T23:37:19.803Z,7.60
2022-08-25T23:40:19.321Z,6.90
2022-08-25T23:43:17.583Z,7.20
2022-08-25T23:46:15.361Z,8.60
2022-08-25T23:49:12.879Z,7.00
2022-08-25T23:52:10.349Z,10.80
2022-08-25T23:55:08.201Z,8.60
2022-08-25T23:58:05.646Z,7.30
